Aérodrome :
LOGIN :

S'inscrire | Disclaimer

   EN    FR    IT 

 










Légende :    VFR   VFR Marginal   IFR   IFR Intensif   IFR Très Intensif
Visi : 
Plafond : 
>= 8 km
>= 3000ft
5 à 8 km
1000 à 3000 ft
1500m à 5 km
500 à 1000 ft
800 à 1500m
200 à 500 ft
< 800m
< 200 ft
Symboles :   Orages  Brouillard  Fortes neiges  Fortes précipitations  Vent > 20 kt
SIGMETs :   Divers  Orages  Givrage  Turbulence  Onde Orograph.  Cendres Volcan.






- Altitude de l'aérodrome : 190 ft


LBPG - Graf Ignatievo Air Base

DERNIER METAR :
  • 281300Z 22006KT 9999 BKN050 BKN100 16/10 Q1016 RERA

METARs EXPIRÉS :
  • 281222Z 26008KT 9999 -RA SCT034 BKN060 BKN100 13/11 Q1017 RETS
  • 281200Z 26008KT 9999 -TSRA SCT034CB BKN060 BKN100 13/11 Q1017
  • 281100Z 30012KT 9999 -TSRA SCT034CB BKN060 BKN100 16/08 Q1016

TAF TAF LBPG
Valide du 28 à 06h jusqu'au 28 à 18h UTC


280500Z 2806/2818 27009G17KT 9999 BKN050 BKN100
TEMPO 2809/2816 VRB30KT 4000 TSRA BKN025CB OVC050 BY LBSA



MET'MAP, la Météo Aéronautique d'un coup d'oeil ! - Copyright ORBIFLY Décembre 2007 - Disclaimer

ORBIFLY MET'MAP TEAM :

Programmation & Développement : Alexandra Zaïnal
Sur une idée originale de : Baudouin d'Aumeries
Assistance à la programmation : Marc-Olivier Méhu
Soutien technique & logistique : Manuel Goepfert

Contact : metmap@orbifly.com




SOURCES & CREDITS :

   NOAA